Time;durP1;ratioP1;P1;durP2;ratioP2;P2;SDS_P1;SDS_P2;PMS_P1;PMS_P2;Temp;Humidity;BMP_temperature;BMP_pressure;BME280_temperature;BME280_humidity;BME280_pressure;Samples;Min_cycle;Max_cycle;Signal;HPM_P1;HPM_P2
2023/02/06 00:00:42;;;;;;;1.00;0.50;;;;;;;;;;5096741;28;20054;-64
2023/02/06 00:03:09;;;;;;;0.43;0.30;;;;;;;;;;5092600;28;20036;-64
2023/02/06 00:05:36;;;;;;;0.60;0.40;;;;;;;;;;5087095;28;20017;-64
2023/02/06 00:08:03;;;;;;;0.47;0.30;;;;;;;;;;5104344;28;20424;-65
2023/02/06 00:10:30;;;;;;;0.83;0.60;;;;;;;;;;5104296;28;20088;-65
2023/02/06 00:12:57;;;;;;;1.17;0.57;;;;;;;;;;5093825;28;20020;-64
2023/02/06 00:15:23;;;;;;;2.23;0.57;;;;;;;;;;5090414;28;20042;-63
2023/02/06 00:17:50;;;;;;;0.23;0.20;;;;;;;;;;5077344;28;20013;-64
2023/02/06 00:20:17;;;;;;;0.20;0.13;;;;;;;;;;5091990;28;20383;-65
2023/02/06 00:22:44;;;;;;;0.50;0.37;;;;;;;;;;5096870;28;20517;-64
2023/02/06 00:25:13;;;;;;;0.37;0.37;;;;;;;;;;5090282;28;20040;-64
2023/02/06 00:27:40;;;;;;;0.23;0.23;;;;;;;;;;5087613;28;20036;-64
2023/02/06 00:30:07;;;;;;;0.37;0.20;;;;;;;;;;5091232;28;20610;-64
2023/02/06 00:32:34;;;;;;;1.27;0.70;;;;;;;;;;5095965;28;20103;-64
2023/02/06 00:35:01;;;;;;;0.67;0.50;;;;;;;;;;5108066;28;20023;-64
2023/02/06 00:37:28;;;;;;;0.10;0.10;;;;;;;;;;5115013;28;20035;-64
2023/02/06 00:39:55;;;;;;;1.97;0.77;;;;;;;;;;5116982;28;20114;-65
2023/02/06 00:42:21;;;;;;;0.30;0.20;;;;;;;;;;5098674;28;20071;-64
2023/02/06 00:44:48;;;;;;;0.33;0.17;;;;;;;;;;5091465;28;20066;-64
2023/02/06 00:47:15;;;;;;;0.20;0.10;;;;;;;;;;5104147;28;20439;-64
2023/02/06 00:49:42;;;;;;;3.07;0.47;;;;;;;;;;5111877;28;20382;-64
2023/02/06 00:52:08;;;;;;;0.40;0.20;;;;;;;;;;5075687;28;20036;-64
2023/02/06 00:54:35;;;;;;;0.07;0.07;;;;;;;;;;5096351;28;20031;-65
2023/02/06 00:57:02;;;;;;;0.43;0.23;;;;;;;;;;5113075;28;20482;-64
2023/02/06 00:59:29;;;;;;;0.77;0.30;;;;;;;;;;5107884;28;20036;-64
2023/02/06 01:01:55;;;;;;;0.60;0.40;;;;;;;;;;5116906;28;20035;-64
2023/02/06 01:04:22;;;;;;;1.53;0.60;;;;;;;;;;5105011;28;20067;-64
2023/02/06 01:06:49;;;;;;;6.23;0.97;;;;;;;;;;5091164;28;20052;-64
2023/02/06 01:09:16;;;;;;;1.07;0.67;;;;;;;;;;5098698;28;20393;-64
2023/02/06 01:11:42;;;;;;;0.90;0.30;;;;;;;;;;5111587;28;20050;-64
2023/02/06 01:14:09;;;;;;;0.97;0.57;;;;;;;;;;5087564;28;20051;-63
2023/02/06 01:16:36;;;;;;;0.70;0.50;;;;;;;;;;5095734;28;20584;-64
2023/02/06 01:19:02;;;;;;;0.53;0.40;;;;;;;;;;5101960;28;20062;-63
2023/02/06 01:21:30;;;;;;;0.30;0.17;;;;;;;;;;5103097;28;20105;-63
2023/02/06 01:23:57;;;;;;;0.90;0.70;;;;;;;;;;5111428;28;20463;-63
2023/02/06 01:26:28;;;;;;;0.50;0.40;;;;;;;;;;5094372;28;20016;-63
2023/02/06 01:28:55;;;;;;;0.83;0.53;;;;;;;;;;5093664;28;20020;-64
2023/02/06 01:31:23;;;;;;;0.70;0.50;;;;;;;;;;5111049;28;20015;-64
2023/02/06 01:33:51;;;;;;;1.47;0.50;;;;;;;;;;5108548;28;20077;-63
2023/02/06 01:36:18;;;;;;;0.87;0.67;;;;;;;;;;5091559;28;20069;-64
2023/02/06 01:38:45;;;;;;;4.00;0.97;;;;;;;;;;5078406;28;20566;-63
2023/02/06 01:41:12;;;;;;;0.47;0.40;;;;;;;;;;5095455;28;20348;-64
2023/02/06 01:43:41;;;;;;;2.37;0.80;;;;;;;;;;5111104;28;20438;-63
2023/02/06 01:46:08;;;;;;;1.20;0.60;;;;;;;;;;5114057;28;20531;-64
2023/02/06 01:48:41;;;;;;;1.30;0.70;;;;;;;;;;5114514;28;20050;-64
2023/02/06 01:51:11;;;;;;;1.27;0.63;;;;;;;;;;5095030;28;20055;-64
2023/02/06 01:53:38;;;;;;;1.37;0.80;;;;;;;;;;5089962;28;20077;-63
2023/02/06 01:56:09;;;;;;;1.30;0.87;;;;;;;;;;5091307;28;20028;-63
2023/02/06 01:58:37;;;;;;;1.10;0.80;;;;;;;;;;5092144;28;20061;-63
2023/02/06 02:01:05;;;;;;;4.17;1.73;;;;;;;;;;5115613;28;20068;-64
2023/02/06 02:03:34;;;;;;;3.50;2.20;;;;;;;;;;5102874;28;20032;-64
2023/02/06 02:06:02;;;;;;;3.53;1.70;;;;;;;;;;5095027;28;20028;-63
2023/02/06 02:08:33;;;;;;;4.17;1.97;;;;;;;;;;5104817;28;20034;-64
2023/02/06 02:11:01;;;;;;;1.77;1.30;;;;;;;;;;5111167;28;20559;-63
2023/02/06 02:13:30;;;;;;;7.60;2.07;;;;;;;;;;5106056;28;20028;-64
2023/02/06 02:16:09;;;;;;;1.83;0.93;;;;;;;;;;5092829;28;20032;-63
2023/02/06 02:19:08;;;;;;;1.87;1.10;;;;;;;;;;5069597;28;20063;-63
2023/02/06 02:22:04;;;;;;;4.10;1.17;;;;;;;;;;5039976;28;20107;-63
2023/02/06 02:24:30;;;;;;;;;;;;;;;;;;5112452;28;20039;-63
2023/02/06 02:27:06;;;;;;;5.93;1.60;;;;;;;;;;5095920;28;19908;-63
2023/02/06 02:29:42;;;;;;;3.33;1.30;;;;;;;;;;5095967;28;20028;-63
2023/02/06 02:32:18;;;;;;;1.17;0.70;;;;;;;;;;5114534;28;20023;-63
2023/02/06 02:34:47;;;;;;;2.97;1.37;;;;;;;;;;5107053;28;20088;-63
2023/02/06 02:37:21;;;;;;;8.37;2.03;;;;;;;;;;5089149;28;20498;-63
2023/02/06 02:40:08;;;;;;;2.20;1.75;;;;;;;;;;5109638;28;20175;-63
2023/02/06 02:42:38;;;;;;;1.73;1.10;;;;;;;;;;5055040;28;20032;-63
2023/02/06 02:45:10;;;;;;;2.83;0.80;;;;;;;;;;5092069;28;20020;-63
2023/02/06 02:47:55;;;;;;;4.53;1.77;;;;;;;;;;5108361;28;20031;-63
2023/02/06 02:50:23;;;;;;;2.47;1.30;;;;;;;;;;5114574;28;20022;-64
2023/02/06 02:52:49;;;;;;;13.37;1.83;;;;;;;;;;5110921;28;20344;-63
2023/02/06 02:55:19;;;;;;;4.37;1.37;;;;;;;;;;5092039;28;20363;-63
2023/02/06 02:57:47;;;;;;;2.00;0.83;;;;;;;;;;5090542;28;20063;-63
2023/02/06 03:00:16;;;;;;;8.60;0.50;;;;;;;;;;5109396;28;20058;-63
2023/02/06 03:02:44;;;;;;;3.70;1.30;;;;;;;;;;5106994;28;20028;-63
2023/02/06 03:05:12;;;;;;;2.23;1.00;;;;;;;;;;5089193;28;20111;-63
2023/02/06 03:07:39;;;;;;;1.30;0.73;;;;;;;;;;5094167;28;20095;-63
2023/02/06 03:10:19;;;;;;;18.17;1.67;;;;;;;;;;5111758;28;20012;-63
2023/02/06 03:13:10;;;;;;;7.63;1.10;;;;;;;;;;5094544;28;20024;-63
2023/02/06 03:15:57;;;;;;;1.13;0.70;;;;;;;;;;5102969;28;20032;-63
2023/02/06 03:18:30;;;;;;;2.53;1.33;;;;;;;;;;5091991;28;20032;-63
2023/02/06 03:20:58;;;;;;;2.03;1.27;;;;;;;;;;5088587;28;20042;-63
2023/02/06 03:23:28;;;;;;;1.83;0.93;;;;;;;;;;5090696;28;20267;-63
2023/02/06 03:25:57;;;;;;;1.33;0.70;;;;;;;;;;5102794;28;20059;-63
2023/02/06 03:28:27;;;;;;;1.97;1.07;;;;;;;;;;5098140;28;20020;-63
2023/02/06 03:30:57;;;;;;;1.63;1.03;;;;;;;;;;5093855;28;20032;-64
2023/02/06 03:33:26;;;;;;;0.90;0.70;;;;;;;;;;5109484;28;20031;-65
2023/02/06 03:35:54;;;;;;;1.50;0.90;;;;;;;;;;5105152;28;20098;-64
2023/02/06 03:38:23;;;;;;;1.03;0.53;;;;;;;;;;5094905;28;20080;-64
2023/02/06 03:40:51;;;;;;;0.90;0.70;;;;;;;;;;5095129;28;20028;-64
2023/02/06 03:43:20;;;;;;;13.80;0.73;;;;;;;;;;5088052;28;20427;-64
2023/02/06 03:45:52;;;;;;;9.37;1.17;;;;;;;;;;5102358;28;20528;-64
2023/02/06 03:48:24;;;;;;;8.47;0.80;;;;;;;;;;5103651;28;20023;-65
2023/02/06 03:50:53;;;;;;;0.63;0.60;;;;;;;;;;5096120;28;20031;-64
2023/02/06 03:53:21;;;;;;;3.50;0.83;;;;;;;;;;5095709;28;20024;-63
2023/02/06 03:55:50;;;;;;;2.00;1.20;;;;;;;;;;5113807;28;20022;-63
2023/02/06 03:58:17;;;;;;;1.00;0.80;;;;;;;;;;5110982;28;20043;-64
2023/02/06 04:00:46;;;;;;;0.87;0.73;;;;;;;;;;5096922;28;20024;-63
2023/02/06 04:03:13;;;;;;;3.13;1.37;;;;;;;;;;5109137;28;20095;-63
2023/02/06 04:05:42;;;;;;;3.07;1.47;;;;;;;;;;5091792;28;20036;-63
2023/02/06 04:08:09;;;;;;;4.80;1.40;;;;;;;;;;5112226;28;20073;-63
2023/02/06 04:10:36;;;;;;;4.67;1.03;;;;;;;;;;5074387;28;20029;-63
2023/02/06 04:13:03;;;;;;;0.87;0.70;;;;;;;;;;5094581;28;20035;-62
2023/02/06 04:15:29;;;;;;;2.73;0.97;;;;;;;;;;5105149;28;20375;-64
2023/02/06 04:17:56;;;;;;;1.73;0.90;;;;;;;;;;5096997;28;20081;-63
2023/02/06 04:20:23;;;;;;;1.63;1.10;;;;;;;;;;5111491;28;20020;-62
2023/02/06 04:22:49;;;;;;;5.27;1.00;;;;;;;;;;5099446;28;20031;-62
2023/02/06 04:25:16;;;;;;;6.40;1.17;;;;;;;;;;5114464;28;20040;-62
2023/02/06 04:27:43;;;;;;;2.60;1.10;;;;;;;;;;5110303;28;20050;-63
2023/02/06 04:30:10;;;;;;;8.13;0.87;;;;;;;;;;5096679;28;20027;-64
2023/02/06 04:32:36;;;;;;;1.40;1.10;;;;;;;;;;5111907;28;20497;-64
2023/02/06 04:35:03;;;;;;;0.80;0.53;;;;;;;;;;5096455;28;20024;-64
2023/02/06 04:37:30;;;;;;;3.10;1.17;;;;;;;;;;5099387;28;20024;-62
2023/02/06 04:39:57;;;;;;;1.53;1.03;;;;;;;;;;5095979;28;20028;-62
2023/02/06 04:42:23;;;;;;;2.50;1.67;;;;;;;;;;5103240;28;20390;-63
2023/02/06 04:44:50;;;;;;;2.00;0.90;;;;;;;;;;5116227;28;20031;-63
2023/02/06 04:47:17;;;;;;;0.93;0.83;;;;;;;;;;5107332;28;20043;-64
2023/02/06 04:49:43;;;;;;;2.67;1.53;;;;;;;;;;5102534;28;20036;-63
2023/02/06 04:52:10;;;;;;;2.43;1.43;;;;;;;;;;5098751;28;20050;-63
2023/02/06 04:54:37;;;;;;;2.53;1.10;;;;;;;;;;5097068;28;20371;-63
2023/02/06 04:57:03;;;;;;;6.33;1.17;;;;;;;;;;5093434;28;20031;-63
2023/02/06 04:59:30;;;;;;;1.87;1.23;;;;;;;;;;5101145;28;20136;-63
2023/02/06 05:01:57;;;;;;;1.10;0.73;;;;;;;;;;5101217;28;20107;-63
2023/02/06 05:04:23;;;;;;;1.00;0.80;;;;;;;;;;5095476;28;20024;-63
2023/02/06 05:06:50;;;;;;;5.33;1.13;;;;;;;;;;5099709;28;20036;-63
2023/02/06 05:09:17;;;;;;;1.07;0.87;;;;;;;;;;5080110;28;20047;-63
2023/02/06 05:11:44;;;;;;;5.60;1.53;;;;;;;;;;5101301;28;20062;-63
2023/02/06 05:14:10;;;;;;;1.37;0.70;;;;;;;;;;5106441;28;20035;-63
2023/02/06 05:16:37;;;;;;;0.80;0.47;;;;;;;;;;5089328;28;20107;-63
2023/02/06 05:19:04;;;;;;;30.57;1.73;;;;;;;;;;5093953;28;20406;-63
2023/02/06 05:21:30;;;;;;;0.60;0.47;;;;;;;;;;5107120;28;20049;-63
2023/02/06 05:23:57;;;;;;;2.80;0.80;;;;;;;;;;5095936;28;20043;-63
2023/02/06 05:26:24;;;;;;;1.93;0.77;;;;;;;;;;5094225;28;20024;-62
2023/02/06 05:28:50;;;;;;;0.97;0.63;;;;;;;;;;5094926;28;20028;-62
2023/02/06 05:31:18;;;;;;;1.13;0.67;;;;;;;;;;5093937;28;20059;-63
2023/02/06 05:33:50;;;;;;;0.73;0.63;;;;;;;;;;5089150;28;20034;-63
2023/02/06 05:36:17;;;;;;;1.10;0.67;;;;;;;;;;5089547;28;20080;-63
2023/02/06 05:38:44;;;;;;;0.97;0.70;;;;;;;;;;5089324;28;20040;-62
2023/02/06 05:41:11;;;;;;;0.70;0.70;;;;;;;;;;5089120;28;20444;-62
2023/02/06 05:43:38;;;;;;;1.30;0.87;;;;;;;;;;5094688;28;20024;-63
2023/02/06 05:46:04;;;;;;;6.23;2.03;;;;;;;;;;5094546;28;20024;-63
2023/02/06 05:48:33;;;;;;;3.13;0.97;;;;;;;;;;5094653;28;20104;-62
2023/02/06 05:51:00;;;;;;;2.53;0.70;;;;;;;;;;5094519;28;20024;-63
2023/02/06 05:53:27;;;;;;;3.50;1.10;;;;;;;;;;5093915;28;20024;-62
2023/02/06 05:55:53;;;;;;;2.43;0.60;;;;;;;;;;5088906;28;20031;-63
2023/02/06 05:58:20;;;;;;;0.77;0.47;;;;;;;;;;5088601;28;20032;-63
2023/02/06 06:00:49;;;;;;;0.60;0.43;;;;;;;;;;5089078;28;20469;-63
2023/02/06 06:03:16;;;;;;;1.30;0.77;;;;;;;;;;5088817;28;20028;-63
2023/02/06 06:05:43;;;;;;;0.13;0.13;;;;;;;;;;5094273;28;20043;-63
2023/02/06 06:08:10;;;;;;;0.50;0.40;;;;;;;;;;5094176;28;20031;-62
2023/02/06 06:10:36;;;;;;;0.77;0.60;;;;;;;;;;5076022;28;20048;-62
2023/02/06 06:13:03;;;;;;;0.60;0.43;;;;;;;;;;5093555;28;20016;-63
2023/02/06 06:15:30;;;;;;;0.53;0.40;;;;;;;;;;5093638;28;20103;-62
2023/02/06 06:17:56;;;;;;;1.50;0.40;;;;;;;;;;5088461;28;20020;-63
2023/02/06 06:20:32;;;;;;;0.27;0.20;;;;;;;;;;5093015;28;20031;-62
2023/02/06 06:22:59;;;;;;;0.57;0.43;;;;;;;;;;5108943;28;20031;-63
2023/02/06 06:25:26;;;;;;;0.27;0.27;;;;;;;;;;5108989;28;20028;-62
2023/02/06 06:27:52;;;;;;;1.30;0.60;;;;;;;;;;5113659;28;20351;-62
2023/02/06 06:30:19;;;;;;;0.83;0.80;;;;;;;;;;5113503;28;20028;-62
2023/02/06 06:32:46;;;;;;;1.03;0.67;;;;;;;;;;5113476;28;20020;-62
2023/02/06 06:35:12;;;;;;;1.23;0.73;;;;;;;;;;5114077;28;20028;-62
2023/02/06 06:37:39;;;;;;;1.53;1.07;;;;;;;;;;5113819;28;20530;-62
2023/02/06 06:40:06;;;;;;;1.30;0.77;;;;;;;;;;5108516;28;20031;-62
2023/02/06 06:42:33;;;;;;;2.43;0.77;;;;;;;;;;5108284;28;20020;-62
2023/02/06 06:44:59;;;;;;;0.43;0.43;;;;;;;;;;5108221;28;20016;-62
2023/02/06 06:47:26;;;;;;;0.73;0.47;;;;;;;;;;5108300;28;20020;-63
2023/02/06 06:49:53;;;;;;;0.47;0.47;;;;;;;;;;5113105;28;20536;-62
2023/02/06 06:52:19;;;;;;;0.20;0.20;;;;;;;;;;5113467;28;20030;-62
2023/02/06 06:54:46;;;;;;;2.03;1.00;;;;;;;;;;5113780;28;20027;-62
2023/02/06 06:57:13;;;;;;;0.70;0.50;;;;;;;;;;5113522;28;20026;-62
2023/02/06 06:59:40;;;;;;;0.47;0.37;;;;;;;;;;5113178;28;20032;-62
2023/02/06 07:02:07;;;;;;;1.07;0.67;;;;;;;;;;5108395;28;20027;-62
2023/02/06 07:04:33;;;;;;;6.43;0.63;;;;;;;;;;5107765;28;20089;-62
2023/02/06 07:07:00;;;;;;;0.30;0.27;;;;;;;;;;5107992;28;20842;-62
2023/02/06 07:09:27;;;;;;;0.67;0.60;;;;;;;;;;5108033;28;20106;-62
2023/02/06 07:11:53;;;;;;;0.37;0.37;;;;;;;;;;5112292;28;20065;-62
2023/02/06 07:14:20;;;;;;;0.47;0.47;;;;;;;;;;5112490;28;20031;-62
2023/02/06 07:16:47;;;;;;;1.30;0.83;;;;;;;;;;5092212;28;20048;-63
2023/02/06 07:19:14;;;;;;;1.87;1.23;;;;;;;;;;5092780;28;20074;-62
2023/02/06 07:21:41;;;;;;;1.30;0.67;;;;;;;;;;5074997;28;20027;-62
2023/02/06 07:24:07;;;;;;;5.50;0.93;;;;;;;;;;5088046;28;20091;-63
2023/02/06 07:26:34;;;;;;;0.93;0.77;;;;;;;;;;5087433;28;20544;-62
2023/02/06 07:29:01;;;;;;;0.70;0.50;;;;;;;;;;5087226;28;20023;-62
2023/02/06 07:31:28;;;;;;;0.57;0.43;;;;;;;;;;5087222;28;20267;-63
2023/02/06 07:33:54;;;;;;;1.70;0.80;;;;;;;;;;5090382;28;20027;-62
2023/02/06 07:36:21;;;;;;;1.13;0.70;;;;;;;;;;5092671;28;20138;-62
2023/02/06 07:38:48;;;;;;;1.00;0.70;;;;;;;;;;5092435;28;20040;-62
2023/02/06 07:41:16;;;;;;;0.80;0.63;;;;;;;;;;5104677;28;20032;-62
2023/02/06 07:43:43;;;;;;;0.30;0.27;;;;;;;;;;5094092;28;20379;-62
2023/02/06 07:46:10;;;;;;;0.30;0.30;;;;;;;;;;5088316;28;20051;-62
2023/02/06 07:48:37;;;;;;;0.20;0.20;;;;;;;;;;5087012;28;20103;-62
2023/02/06 07:51:05;;;;;;;0.47;0.40;;;;;;;;;;5087186;28;20264;-62
2023/02/06 07:53:31;;;;;;;0.63;0.37;;;;;;;;;;5087091;28;20032;-62
2023/02/06 07:55:58;;;;;;;2.40;0.60;;;;;;;;;;5090152;28;20382;-62
2023/02/06 07:58:25;;;;;;;0.43;0.40;;;;;;;;;;5091880;28;20299;-62
2023/02/06 08:00:53;;;;;;;1.43;0.67;;;;;;;;;;5092552;28;20044;-62
2023/02/06 08:03:20;;;;;;;0.43;0.43;;;;;;;;;;5092182;28;20532;-62
2023/02/06 08:05:47;;;;;;;1.33;0.40;;;;;;;;;;5104208;28;20097;-62
2023/02/06 08:08:14;;;;;;;1.10;0.70;;;;;;;;;;5088547;28;20102;-62
2023/02/06 08:10:40;;;;;;;4.60;1.03;;;;;;;;;;5086873;28;20058;-62
2023/02/06 08:13:07;;;;;;;0.57;0.40;;;;;;;;;;5086858;28;20077;-62
2023/02/06 08:15:34;;;;;;;2.00;1.03;;;;;;;;;;5086636;28;20356;-62
2023/02/06 08:18:01;;;;;;;0.83;0.57;;;;;;;;;;5095869;28;20054;-62
2023/02/06 08:20:27;;;;;;;0.40;0.37;;;;;;;;;;5112090;28;20015;-62
2023/02/06 08:22:54;;;;;;;1.47;0.80;;;;;;;;;;5112491;28;20024;-62
2023/02/06 08:25:21;;;;;;;0.77;0.33;;;;;;;;;;5112603;28;20458;-62
2023/02/06 08:27:51;;;;;;;0.53;0.50;;;;;;;;;;5112077;28;20262;-62
2023/02/06 08:30:18;;;;;;;1.00;0.70;;;;;;;;;;5109073;28;20743;-62
2023/02/06 08:32:44;;;;;;;0.93;0.70;;;;;;;;;;5106684;28;20309;-62
2023/02/06 08:35:11;;;;;;;0.80;0.40;;;;;;;;;;5104249;28;20280;-62
2023/02/06 08:37:39;;;;;;;0.33;0.27;;;;;;;;;;5086481;28;20312;-62
2023/02/06 08:40:06;;;;;;;0.63;0.63;;;;;;;;;;5089297;28;20296;-62
2023/02/06 08:42:33;;;;;;;0.17;0.17;;;;;;;;;;5091908;28;20292;-62
2023/02/06 08:45:00;;;;;;;0.20;0.20;;;;;;;;;;5091807;28;20290;-62
2023/02/06 08:47:26;;;;;;;1.37;0.80;;;;;;;;;;5091620;28;20735;-63
2023/02/06 08:49:53;;;;;;;1.10;0.90;;;;;;;;;;5091823;28;20277;-62
2023/02/06 08:52:21;;;;;;;0.73;0.50;;;;;;;;;;5089570;28;20710;-62
2023/02/06 08:54:50;;;;;;;1.03;0.90;;;;;;;;;;5090388;28;20256;-62
2023/02/06 08:57:17;;;;;;;0.93;0.80;;;;;;;;;;5090000;28;20367;-62
2023/02/06 08:59:43;;;;;;;0.67;0.57;;;;;;;;;;5090168;28;20378;-62
2023/02/06 09:02:11;;;;;;;0.30;0.30;;;;;;;;;;5092597;28;20253;-62
2023/02/06 09:04:38;;;;;;;0.30;0.23;;;;;;;;;;5095460;28;20737;-62
2023/02/06 09:07:05;;;;;;;0.40;0.40;;;;;;;;;;5076767;28;20283;-61
2023/02/06 09:09:31;;;;;;;0.73;0.47;;;;;;;;;;5095540;28;20245;-62
2023/02/06 09:12:02;;;;;;;0.40;0.40;;;;;;;;;;5106423;28;20273;-61
2023/02/06 09:14:29;;;;;;;1.20;0.90;;;;;;;;;;5092181;28;20257;-62
2023/02/06 09:16:57;;;;;;;1.57;0.90;;;;;;;;;;5089536;28;21093;-62
2023/02/06 09:19:24;;;;;;;0.20;0.20;;;;;;;;;;5089669;28;20748;-62
2023/02/06 09:21:50;;;;;;;0.20;0.20;;;;;;;;;;5109016;28;20618;-62
2023/02/06 09:24:17;;;;;;;0.57;0.50;;;;;;;;;;5111966;28;20250;-62
2023/02/06 09:26:44;;;;;;;0.67;0.50;;;;;;;;;;5115713;28;20276;-61
2023/02/06 09:29:11;;;;;;;0.47;0.40;;;;;;;;;;5114882;28;20266;-62
2023/02/06 09:31:39;;;;;;;0.20;0.20;;;;;;;;;;5115434;28;20248;-61
2023/02/06 09:34:06;;;;;;;1.63;0.80;;;;;;;;;;5115515;28;20760;-62
2023/02/06 09:36:34;;;;;;;0.57;0.50;;;;;;;;;;5111480;28;20745;-62
2023/02/06 09:39:01;;;;;;;0.33;0.30;;;;;;;;;;5108819;28;20291;-62
2023/02/06 09:41:36;;;;;;;0.60;0.57;;;;;;;;;;5109616;28;20256;-62
2023/02/06 09:44:06;;;;;;;1.20;0.50;;;;;;;;;;5109682;28;20256;-62
2023/02/06 09:46:34;;;;;;;0.80;0.70;;;;;;;;;;5111489;28;20361;-62
2023/02/06 09:49:03;;;;;;;0.60;0.40;;;;;;;;;;5098891;28;20356;-62
2023/02/06 09:51:48;;;;;;;0.63;0.47;;;;;;;;;;5094141;28;20344;-62
2023/02/06 09:54:21;;;;;;;0.30;0.30;;;;;;;;;;5094466;28;20762;-61
2023/02/06 09:56:47;;;;;;;0.80;0.57;;;;;;;;;;5094419;28;20048;-61
2023/02/06 09:59:23;;;;;;;0.20;0.20;;;;;;;;;;5090541;28;20284;-62
2023/02/06 10:02:13;;;;;;;0.30;0.30;;;;;;;;;;5088924;28;20713;-62
2023/02/06 10:04:44;;;;;;;4.27;0.83;;;;;;;;;;5041575;28;20265;-62
2023/02/06 10:07:10;;;;;;;0.87;0.57;;;;;;;;;;5088966;28;20292;-62
2023/02/06 10:09:37;;;;;;;0.50;0.50;;;;;;;;;;5092708;28;20257;-61
2023/02/06 10:12:16;;;;;;;0.53;0.50;;;;;;;;;;5093867;28;20288;-61
2023/02/06 10:14:45;;;;;;;0.43;0.40;;;;;;;;;;5093943;28;20249;-61
2023/02/06 10:17:19;;;;;;;0.63;0.47;;;;;;;;;;5093996;28;20256;-61
2023/02/06 10:19:49;;;;;;;2.13;0.93;;;;;;;;;;5093915;28;20284;-62
2023/02/06 10:22:19;;;;;;;1.33;0.73;;;;;;;;;;5088179;28;20635;-62
2023/02/06 10:25:04;;;;;;;0.63;0.53;;;;;;;;;;5085899;28;20408;-61
2023/02/06 10:27:33;;;;;;;0.68;0.40;;;;;;;;;;5088417;28;20367;-62
2023/02/06 10:30:00;;;;;;;1.63;0.83;;;;;;;;;;5088469;28;20028;-63
2023/02/06 10:32:47;;;;;;;1.30;0.73;;;;;;;;;;5093117;28;20259;-62
2023/02/06 10:35:13;;;;;;;0.30;0.30;;;;;;;;;;5097607;28;20772;-62
2023/02/06 10:37:56;;;;;;;2.87;0.67;;;;;;;;;;5113985;28;20253;-62
2023/02/06 10:40:23;;;;;;;0.60;0.60;;;;;;;;;;5113647;28;20671;-61
2023/02/06 10:42:56;;;;;;;0.60;0.50;;;;;;;;;;5112114;28;20248;-62
2023/02/06 10:45:28;;;;;;;22.67;1.00;;;;;;;;;;5108331;28;20658;-61
2023/02/06 10:48:01;;;;;;;0.70;0.47;;;;;;;;;;5108061;28;20774;-62
2023/02/06 10:50:39;;;;;;;2.53;0.97;;;;;;;;;;5108321;28;20739;-61
2023/02/06 10:53:17;;;;;;;3.10;1.87;;;;;;;;;;5104170;28;20260;-61
2023/02/06 10:55:55;;;;;;;1.50;1.10;;;;;;;;;;5093386;28;20332;-61
2023/02/06 10:58:25;;;;;;;1.93;1.20;;;;;;;;;;5093072;28;20314;-62
2023/02/06 11:00:52;;;;;;;1.30;0.90;;;;;;;;;;5106882;28;20765;-61
2023/02/06 11:03:24;;;;;;;1.63;0.90;;;;;;;;;;5113505;28;20313;-61
2023/02/06 11:05:51;;;;;;;0.63;0.50;;;;;;;;;;5109845;28;20260;-62
2023/02/06 11:08:30;;;;;;;9.23;0.90;;;;;;;;;;5107977;28;20600;-62
2023/02/06 11:10:57;;;;;;;0.73;0.47;;;;;;;;;;5107852;28;20263;-62
2023/02/06 11:13:23;;;;;;;0.73;0.63;;;;;;;;;;5107269;28;20264;-62
2023/02/06 11:15:54;;;;;;;1.07;0.87;;;;;;;;;;5096940;28;20267;-61
2023/02/06 11:18:23;;;;;;;0.43;0.43;;;;;;;;;;5092936;28;20295;-62
2023/02/06 11:20:50;;;;;;;1.13;0.70;;;;;;;;;;5092961;28;20743;-62
2023/02/06 11:23:25;;;;;;;5.10;0.87;;;;;;;;;;5092692;28;20264;-62
2023/02/06 11:26:12;;;;;;;3.35;0.90;;;;;;;;;;5092729;28;20253;-62
2023/02/06 11:28:51;;;;;;;0.53;0.50;;;;;;;;;;5087849;28;20053;-62
2023/02/06 11:31:19;;;;;;;1.83;0.90;;;;;;;;;;5087396;28;20331;-62
2023/02/06 11:33:48;;;;;;;0.73;0.70;;;;;;;;;;5087394;28;20735;-62
2023/02/06 11:36:35;;;;;;;0.60;0.50;;;;;;;;;;5087063;28;20284;-61
2023/02/06 11:39:06;;;;;;;2.63;0.83;;;;;;;;;;5093052;28;20296;-62
2023/02/06 11:41:33;;;;;;;0.80;0.70;;;;;;;;;;5097011;28;20260;-62
2023/02/06 11:44:06;;;;;;;0.77;0.57;;;;;;;;;;5092470;28;20261;-62
2023/02/06 11:46:34;;;;;;;0.70;0.53;;;;;;;;;;5092638;28;20268;-62
2023/02/06 11:49:08;;;;;;;0.63;0.60;;;;;;;;;;5091674;28;20260;-62
2023/02/06 11:51:52;;;;;;;1.20;1.00;;;;;;;;;;5087189;28;20292;-62
2023/02/06 11:54:28;;;;;;;0.43;0.43;;;;;;;;;;5086771;28;20757;-62
2023/02/06 11:56:56;;;;;;;2.27;1.10;;;;;;;;;;5098098;28;20130;-62
2023/02/06 11:59:25;;;;;;;0.57;0.47;;;;;;;;;;5108421;28;20302;-62
2023/02/06 12:01:52;;;;;;;0.63;0.57;;;;;;;;;;5112403;28;20769;-61
2023/02/06 12:04:24;;;;;;;0.57;0.50;;;;;;;;;;5112780;28;20334;-61
2023/02/06 12:07:14;;;;;;;1.23;0.77;;;;;;;;;;5112148;28;20256;-61
2023/02/06 12:09:40;;;;;;;0.70;0.70;;;;;;;;;;5081791;28;20260;-61
2023/02/06 12:12:27;;;;;;;1.23;0.73;;;;;;;;;;5109799;28;20255;-62
2023/02/06 12:14:54;;;;;;;5.83;1.37;;;;;;;;;;5100718;28;20267;-62
2023/02/06 12:17:27;;;;;;;1.10;0.60;;;;;;;;;;5101053;28;21086;-61
2023/02/06 12:20:19;;;;;;;1.03;0.80;;;;;;;;;;5107116;28;20284;-61
2023/02/06 12:22:49;;;;;;;2.20;1.37;;;;;;;;;;5106143;28;20774;-61
2023/02/06 12:25:27;;;;;;;1.80;0.80;;;;;;;;;;5112531;28;20256;-61
2023/02/06 12:27:56;;;;;;;2.13;0.97;;;;;;;;;;5114721;28;20623;-61
2023/02/06 12:30:23;;;;;;;3.13;1.37;;;;;;;;;;5116690;28;20256;-62
2023/02/06 12:32:53;;;;;;;2.37;1.67;;;;;;;;;;5116100;28;20288;-62
2023/02/06 12:35:40;;;;;;;1.77;1.20;;;;;;;;;;5111335;28;20311;-64
2023/02/06 12:38:12;;;;;;;5.47;1.50;;;;;;;;;;5110618;28;20317;-61
2023/02/06 12:40:45;;;;;;;1.37;1.20;;;;;;;;;;5110990;28;20746;-61
2023/02/06 12:43:13;;;;;;;3.13;1.70;;;;;;;;;;5110620;28;20637;-61
2023/02/06 12:45:47;;;;;;;1.43;1.20;;;;;;;;;;5106737;28;20705;-61
2023/02/06 12:48:17;;;;;;;2.17;1.50;;;;;;;;;;5116008;28;20276;-61
2023/02/06 12:50:50;;;;;;;2.90;1.97;;;;;;;;;;5116104;28;20248;-61
2023/02/06 12:53:29;;;;;;;2.70;1.87;;;;;;;;;;5116084;28;20287;-61
2023/02/06 12:56:02;;;;;;;2.60;2.00;;;;;;;;;;5114182;28;20276;-61
2023/02/06 12:58:51;;;;;;;3.73;2.87;;;;;;;;;;5110175;28;20278;-61
2023/02/06 13:01:24;;;;;;;0.80;0.80;;;;;;;;;;5102948;28;20806;-62
2023/02/06 13:03:52;;;;;;;7.07;3.80;;;;;;;;;;5095101;28;20269;-62
2023/02/06 13:06:24;;;;;;;2.67;2.10;;;;;;;;;;5100655;28;20295;-62
2023/02/06 13:09:10;;;;;;;2.77;2.00;;;;;;;;;;5096625;28;20262;-63
2023/02/06 13:11:39;;;;;;;2.23;1.43;;;;;;;;;;5093709;28;20637;-62
2023/02/06 13:14:06;;;;;;;3.20;1.83;;;;;;;;;;5076791;28;20273;-63
2023/02/06 13:16:51;;;;;;;2.87;2.57;;;;;;;;;;5094992;28;20314;-62
2023/02/06 13:19:28;;;;;;;2.80;1.95;;;;;;;;;;5105931;28;20723;-62
2023/02/06 13:22:15;;;;;;;4.93;3.13;;;;;;;;;;5096182;28;20105;-62
2023/02/06 13:24:45;;;;;;;2.73;2.43;;;;;;;;;;5090046;28;20296;-62
2023/02/06 13:27:15;;;;;;;2.80;2.00;;;;;;;;;;5089350;28;20265;-62
2023/02/06 13:29:42;;;;;;;1.73;1.63;;;;;;;;;;5093961;28;20758;-62
2023/02/06 13:34:42;;;;;;;20.57;3.63;;;;;;;;;;5113010;28;20363;-62
2023/02/06 13:37:27;;;;;;;3.50;2.47;;;;;;;;;;5113065;28;20264;-62
2023/02/06 13:40:12;;;;;;;2.38;2.00;;;;;;;;;;5112841;28;20291;-62
2023/02/06 13:42:39;;;;;;;2.83;2.10;;;;;;;;;;5099694;28;20030;-62
2023/02/06 13:45:06;;;;;;;2.63;2.13;;;;;;;;;;5101140;28;21754;-62
2023/02/06 13:47:45;;;;;;;4.30;2.23;;;;;;;;;;5089104;28;20333;-62
2023/02/06 13:50:21;;;;;;;2.30;1.50;;;;;;;;;;5089871;28;20280;-62
2023/02/06 13:53:00;;;;;;;3.13;2.00;;;;;;;;;;5094603;28;20649;-62
2023/02/06 13:55:45;;;;;;;2.77;2.00;;;;;;;;;;5094491;28;20271;-62
2023/02/06 13:58:14;;;;;;;1.70;1.55;;;;;;;;;;5094180;28;20253;-64
2023/02/06 14:00:43;;;;;;;2.23;1.43;;;;;;;;;;5094399;28;20479;-62
2023/02/06 14:03:13;;;;;;;27.17;1.27;;;;;;;;;;5090939;28;20253;-62
2023/02/06 14:05:51;;;;;;;2.17;1.63;;;;;;;;;;5091814;28;20272;-62
2023/02/06 14:08:23;;;;;;;1.63;1.40;;;;;;;;;;5108792;28;20762;-63
2023/02/06 14:13:47;;;;;;;2.35;1.60;;;;;;;;;;5073091;28;20099;-63
2023/02/06 14:16:37;;;;;;;4.73;1.03;;;;;;;;;;5091744;28;20105;-63
2023/02/06 14:19:09;;;;;;;1.30;0.83;;;;;;;;;;5056028;28;20047;-63
2023/02/06 14:21:50;;;;;;;1.40;1.07;;;;;;;;;;5114535;28;20094;-63
2023/02/06 14:24:21;;;;;;;1.30;1.07;;;;;;;;;;5098021;28;20032;-63
2023/02/06 14:27:14;;;;;;;2.53;1.20;;;;;;;;;;5088367;28;20485;-64
2023/02/06 14:29:56;;;;;;;1.93;1.30;;;;;;;;;;5108448;28;20041;-64
2023/02/06 14:32:31;;;;;;;0.43;0.43;;;;;;;;;;5104105;28;20028;-64
2023/02/06 14:34:58;;;;;;;;;;;;;;;;;;5089353;28;20024;-63
2023/02/06 14:37:36;;;;;;;1.40;1.00;;;;;;;;;;5093514;28;20388;-63
2023/02/06 14:40:10;;;;;;;1.33;1.10;;;;;;;;;;5092950;28;20431;-64
2023/02/06 14:42:42;;;;;;;2.07;1.40;;;;;;;;;;5093545;28;20024;-63
2023/02/06 14:45:16;;;;;;;2.10;1.43;;;;;;;;;;5093455;28;20073;-64
2023/02/06 14:47:43;;;;;;;3.40;1.67;;;;;;;;;;5089644;28;20102;-64
2023/02/06 14:50:18;;;;;;;6.10;1.27;;;;;;;;;;5087735;28;20051;-64
2023/02/06 14:52:47;;;;;;;1.97;1.20;;;;;;;;;;5087360;28;20024;-64
2023/02/06 14:55:32;;;;;;;1.20;0.73;;;;;;;;;;5087727;28;20383;-64
2023/02/06 14:57:59;;;;;;;1.55;1.08;;;;;;;;;;5091450;28;20091;-64
2023/02/06 15:00:27;;;;;;;2.20;1.47;;;;;;;;;;5092675;28;20477;-64
2023/02/06 15:03:15;;;;;;;1.17;0.97;;;;;;;;;;5092940;28;20020;-64
2023/02/06 15:05:41;;;;;;;4.03;1.20;;;;;;;;;;5093092;28;20028;-64